Time,TemperatureF,DewpointF,PressureIn,WindDirection,WindDirectionDegrees,WindSpeedMPH,WindSpeedGustMPH,Humidity,HourlyPrecipIn,Conditions,Clouds,dailyrainin,SoftwareType,DateUTC
2013-03-06 00:05:00,29.4,19.1,30.24,NNW,344,2.0,5.0,65,0.00,,,0.07,Wunderground v.1.15,2013-03-06 06:05:00,
2013-03-06 00:10:00,29.5,18.8,30.24,WNW,284,2.0,2.0,64,0.00,,,0.00,Wunderground v.1.15,2013-03-06 06:10:00,
2013-03-06 00:20:00,29.7,19.4,30.24,WNW,287,3.0,6.0,65,0.00,,,0.00,Wunderground v.1.15,2013-03-06 06:20:00,
2013-03-06 00:30:00,29.5,18.8,30.24,WNW,288,2.0,5.0,64,0.00,,,0.00,Wunderground v.1.15,2013-03-06 06:30:00,
2013-03-06 00:40:00,29.7,18.6,30.24,NNW,344,3.0,3.0,63,0.00,,,0.00,Wunderground v.1.15,2013-03-06 06:40:00,
2013-03-06 00:50:00,29.7,19.0,30.24,WSW,248,3.0,3.0,64,0.00,,,0.00,Wunderground v.1.15,2013-03-06 06:50:00,
2013-03-06 01:00:00,29.5,18.8,30.24,NNE,26,2.0,2.0,64,0.00,,,0.00,Wunderground v.1.15,2013-03-06 07:00:00,
2013-03-06 01:05:00,29.5,18.8,30.24,WSW,256,2.0,2.0,64,0.00,,,0.00,Wunderground v.1.15,2013-03-06 07:05:00,
2013-03-06 01:10:00,29.5,19.2,30.24,NNW,336,2.0,2.0,65,0.00,,,0.00,Wunderground v.1.15,2013-03-06 07:10:00,
2013-03-06 01:19:00,29.5,19.2,30.24,East,96,2.0,5.0,65,0.00,,,0.00,Wunderground v.1.15,2013-03-06 07:19:00,
2013-03-06 01:25:00,29.5,19.2,30.24,WNW,285,3.0,5.0,65,0.00,,,0.00,Wunderground v.1.15,2013-03-06 07:25:00,
2013-03-06 01:35:00,29.5,18.4,30.25,NNW,333,4.0,4.0,63,0.00,,,0.00,Wunderground v.1.15,2013-03-06 07:35:00,
2013-03-06 01:45:00,29.7,18.6,30.25,NE,53,3.0,5.0,63,0.00,,,0.00,Wunderground v.1.15,2013-03-06 07:45:00,
2013-03-06 01:54:00,29.3,17.9,30.26,NNW,347,5.0,8.0,62,0.00,,,0.00,Wunderground v.1.15,2013-03-06 07:54:00,
2013-03-06 02:00:00,29.0,17.6,30.26,NNE,22,5.0,6.0,62,0.00,,,0.00,Wunderground v.1.15,2013-03-06 08:00:00,
2013-03-06 02:05:00,28.8,17.4,30.27,NNE,15,4.0,6.0,62,0.00,,,0.00,Wunderground v.1.15,2013-03-06 08:05:00,
2013-03-06 02:10:00,28.4,17.0,30.27,North,355,4.0,6.0,62,0.00,,,0.00,Wunderground v.1.15,2013-03-06 08:10:00,
2013-03-06 02:20:00,27.8,16.8,30.27,NW,309,3.0,3.0,63,0.00,,,0.00,Wunderground v.1.15,2013-03-06 08:20:00,
2013-03-06 02:30:00,27.8,16.8,30.27,NNW,347,4.0,4.0,63,0.00,,,0.00,Wunderground v.1.15,2013-03-06 08:30:00,
2013-03-06 02:40:00,27.6,17.0,30.27,West,268,3.0,5.0,64,0.00,,,0.00,Wunderground v.1.15,2013-03-06 08:40:00,
2013-03-06 02:49:00,27.6,17.0,30.27,NNW,340,1.0,3.0,64,0.00,,,0.00,Wunderground v.1.15,2013-03-06 08:49:00,
2013-03-06 02:55:00,27.6,17.0,30.27,NW,313,2.0,3.0,64,0.00,,,0.00,Wunderground v.1.15,2013-03-06 08:55:00,
2013-03-06 03:00:00,27.6,17.0,30.27,NNW,329,3.0,5.0,64,0.00,,,0.00,Wunderground v.1.15,2013-03-06 09:00:00,
2013-03-06 03:05:00,27.8,17.2,30.25,NW,307,3.0,5.0,64,0.00,,,0.00,Wunderground v.1.15,2013-03-06 09:05:00,
2013-03-06 03:15:00,27.8,17.2,30.25,North,349,2.0,5.0,64,0.00,,,0.00,Wunderground v.1.15,2013-03-06 09:15:00,
2013-03-06 03:25:00,27.5,16.9,30.26,NNW,336,2.0,2.0,64,0.00,,,0.00,Wunderground v.1.15,2013-03-06 09:25:00,
2013-03-06 03:35:00,27.0,16.4,30.27,North,350,4.0,4.0,64,0.00,,,0.00,Wunderground v.1.15,2013-03-06 09:35:00,
2013-03-06 03:45:00,26.9,16.3,30.27,West,274,3.0,5.0,64,0.00,,,0.00,Wunderground v.1.15,2013-03-06 09:45:00,
2013-03-06 03:55:00,27.0,16.4,30.28,WNW,293,4.0,10.0,64,0.00,,,0.00,Wunderground v.1.15,2013-03-06 09:55:00,
2013-03-06 04:05:00,27.2,16.6,30.29,NNE,33,3.0,3.0,64,0.00,,,0.00,Wunderground v.1.15,2013-03-06 10:05:00,
2013-03-06 04:15:00,27.2,16.6,30.29,NNW,334,3.0,4.0,64,0.00,,,0.00,Wunderground v.1.15,2013-03-06 10:15:00,
2013-03-06 04:25:00,27.0,16.4,30.29,NW,305,1.0,3.0,64,0.00,,,0.00,Wunderground v.1.15,2013-03-06 10:25:00,
2013-03-06 04:35:00,26.7,16.1,30.31,NNW,333,3.0,5.0,64,0.00,,,0.00,Wunderground v.1.15,2013-03-06 10:35:00,
2013-03-06 04:45:00,26.3,15.4,30.31,ENE,57,4.0,6.0,63,0.00,,,0.00,Wunderground v.1.15,2013-03-06 10:45:00,
2013-03-06 04:54:00,26.0,15.5,30.31,NW,326,4.0,7.0,64,0.00,,,0.00,Wunderground v.1.15,2013-03-06 10:54:00,
2013-03-06 05:00:00,25.8,15.3,30.31,NNW,334,3.0,3.0,64,0.00,,,0.00,Wunderground v.1.15,2013-03-06 11:00:00,
2013-03-06 05:05:00,25.7,15.2,30.32,NW,311,3.0,3.0,64,0.00,,,0.00,Wunderground v.1.15,2013-03-06 11:05:00,
2013-03-06 05:14:00,25.4,15.6,30.32,West,271,2.0,3.0,66,0.00,,,0.00,Wunderground v.1.15,2013-03-06 11:14:00,
2013-03-06 05:20:00,25.4,15.6,30.33,NW,324,2.0,2.0,66,0.00,,,0.00,Wunderground v.1.15,2013-03-06 11:20:00,
2013-03-06 05:25:00,25.3,15.5,30.33,NE,42,3.0,5.0,66,0.00,,,0.00,Wunderground v.1.15,2013-03-06 11:25:00,
2013-03-06 05:34:00,25.6,15.8,30.33,WNW,299,2.0,3.0,66,0.00,,,0.00,Wunderground v.1.15,2013-03-06 11:34:00,
2013-03-06 05:40:00,25.6,15.8,30.33,North,351,2.0,2.0,66,0.00,,,0.00,Wunderground v.1.15,2013-03-06 11:40:00,
2013-03-06 05:50:00,25.6,16.2,30.33,WNW,298,1.0,1.0,67,0.00,,,0.00,Wunderground v.1.15,2013-03-06 11:50:00,
2013-03-06 05:59:00,25.6,16.2,30.33,NW,306,1.0,3.0,67,0.00,,,0.00,Wunderground v.1.15,2013-03-06 11:59:00,
2013-03-06 06:05:00,25.6,16.2,30.34,NW,306,1.0,3.0,67,0.00,,,0.00,Wunderground v.1.15,2013-03-06 12:05:00,
2013-03-06 06:15:00,25.7,16.3,30.34,WNW,296,2.0,2.0,67,0.00,,,0.00,Wunderground v.1.15,2013-03-06 12:15:00,
2013-03-06 06:25:00,25.7,16.6,30.34,NW,323,1.0,3.0,68,0.00,,,0.00,Wunderground v.1.15,2013-03-06 12:25:00,
2013-03-06 06:35:00,25.8,16.3,30.35,NNE,16,3.0,3.0,67,0.00,,,0.00,Wunderground v.1.15,2013-03-06 12:35:00,
2013-03-06 06:45:00,25.8,16.0,30.35,NNE,28,3.0,3.0,66,0.00,,,0.00,Wunderground v.1.15,2013-03-06 12:45:00,
2013-03-06 06:55:00,25.8,16.0,30.35,NNE,15,3.0,5.0,66,0.00,,,0.00,Wunderground v.1.15,2013-03-06 12:55:00,
2013-03-06 07:05:00,25.8,16.0,30.35,NNE,22,2.0,6.0,66,0.00,,,0.00,Wunderground v.1.15,2013-03-06 13:05:00,
2013-03-06 07:10:00,26.0,16.2,30.35,NNW,346,3.0,3.0,66,0.00,,,0.00,Wunderground v.1.15,2013-03-06 13:10:00,
2013-03-06 07:20:00,26.0,16.2,30.36,NNW,345,3.0,3.0,66,0.00,,,0.00,Wunderground v.1.15,2013-03-06 13:20:00,
2013-03-06 07:29:00,26.1,15.9,30.36,NW,319,3.0,3.0,65,0.00,,,0.00,Wunderground v.1.15,2013-03-06 13:29:00,
2013-03-06 07:35:00,26.3,16.1,30.36,NNE,33,4.0,5.0,65,0.00,,,0.00,Wunderground v.1.15,2013-03-06 13:35:00,
2013-03-06 07:44:00,26.3,16.1,30.36,North,5,3.0,4.0,65,0.00,,,0.00,Wunderground v.1.15,2013-03-06 13:44:00,
2013-03-06 07:50:00,26.4,16.2,30.37,NNW,327,2.0,2.0,65,0.00,,,0.00,Wunderground v.1.15,2013-03-06 13:50:00,
2013-03-06 08:00:00,26.6,16.4,30.37,North,350,3.0,8.0,65,0.00,,,0.00,Wunderground v.1.15,2013-03-06 14:00:00,
2013-03-06 08:05:00,26.9,16.7,30.36,NW,325,3.0,8.0,65,0.00,,,0.00,Wunderground v.1.15,2013-03-06 14:05:00,
2013-03-06 08:15:00,27.6,17.0,30.36,NNW,346,3.0,10.0,64,0.00,,,0.00,Wunderground v.1.15,2013-03-06 14:15:00,
2013-03-06 08:20:00,27.6,17.0,30.36,North,360,4.0,4.0,64,0.00,,,0.00,Wunderground v.1.15,2013-03-06 14:20:00,
2013-03-06 08:30:00,29.0,18.3,30.36,NNE,29,3.0,3.0,64,0.00,,,0.00,Wunderground v.1.15,2013-03-06 14:30:00,
2013-03-06 08:39:00,29.3,17.9,30.37,NW,325,3.0,3.0,62,0.00,,,0.00,Wunderground v.1.15,2013-03-06 14:39:00,
2013-03-06 08:45:00,29.3,17.5,30.37,North,360,3.0,4.0,61,0.00,,,0.00,Wunderground v.1.15,2013-03-06 14:45:00,
2013-03-06 08:55:00,29.8,16.8,30.37,NE,35,4.0,4.0,58,0.00,,,0.00,Wunderground v.1.15,2013-03-06 14:55:00,
2013-03-06 09:05:00,30.7,17.7,30.37,NW,306,3.0,6.0,58,0.00,,,0.00,Wunderground v.1.15,2013-03-06 15:05:00,
2013-03-06 09:45:00,32.7,18.7,30.37,NE,34,3.0,3.0,56,0.00,,,0.00,Wunderground v.1.15,2013-03-06 15:45:00,
2013-03-06 09:55:00,33.1,18.7,30.37,NNE,18,3.0,3.0,55,0.00,,,0.00,Wunderground v.1.15,2013-03-06 15:55:00,
2013-03-06 10:05:00,32.8,18.4,30.37,North,5,4.0,4.0,55,0.00,,,0.00,Wunderground v.1.15,2013-03-06 16:05:00,
2013-03-06 10:14:00,33.5,19.0,30.37,NNE,30,3.0,4.0,55,0.00,,,0.00,Wunderground v.1.15,2013-03-06 16:14:00,
2013-03-06 10:25:00,34.3,19.4,30.37,NNW,348,3.0,4.0,54,0.00,,,0.00,Wunderground v.1.15,2013-03-06 16:25:00,
2013-03-06 10:34:00,34.0,19.9,30.36,NNW,339,3.0,3.0,56,0.00,,,0.00,Wunderground v.1.15,2013-03-06 16:34:00,
2013-03-06 10:40:00,34.4,19.9,30.36,NNE,24,2.0,4.0,55,0.00,,,0.00,Wunderground v.1.15,2013-03-06 16:40:00,
2013-03-06 10:49:00,35.8,21.2,30.35,NNE,30,2.0,2.0,55,0.00,,,0.00,Wunderground v.1.15,2013-03-06 16:49:00,
2013-03-06 10:55:00,35.9,20.0,30.35,ESE,120,2.0,2.0,52,0.00,,,0.00,Wunderground v.1.15,2013-03-06 16:55:00,
2013-03-06 11:05:00,36.0,20.5,30.36,NNE,28,2.0,4.0,53,0.00,,,0.00,Wunderground v.1.15,2013-03-06 17:05:00,
2013-03-06 11:10:00,35.8,20.3,30.36,NE,36,2.0,3.0,53,0.00,,,0.00,Wunderground v.1.15,2013-03-06 17:10:00,
2013-03-06 11:19:00,36.9,21.8,30.35,NNE,16,1.0,3.0,54,0.00,,,0.00,Wunderground v.1.15,2013-03-06 17:19:00,
2013-03-06 11:25:00,36.3,19.9,30.35,NNE,27,2.0,3.0,51,0.00,,,0.00,Wunderground v.1.15,2013-03-06 17:25:00,
2013-03-06 11:34:00,36.8,22.6,30.35,West,273,1.0,3.0,56,0.00,,,0.00,Wunderground v.1.15,2013-03-06 17:34:00,
2013-03-06 11:40:00,37.2,21.2,30.35,West,262,2.0,3.0,52,0.00,,,0.00,Wunderground v.1.15,2013-03-06 17:40:00,
2013-03-06 11:50:00,37.9,21.8,30.35,WNW,287,1.0,2.0,52,0.00,,,0.00,Wunderground v.1.15,2013-03-06 17:50:00,
2013-03-06 11:59:00,37.8,20.8,30.35,NNE,20,2.0,3.0,50,0.00,,,0.00,Wunderground v.1.15,2013-03-06 17:59:00,
2013-03-06 12:05:00,38.2,22.6,30.35,North,349,2.0,4.0,53,0.00,,,0.00,Wunderground v.1.15,2013-03-06 18:05:00,
2013-03-06 12:14:00,38.5,21.9,30.35,NNE,25,2.0,6.0,51,0.00,,,0.00,Wunderground v.1.15,2013-03-06 18:14:00,
2013-03-06 12:20:00,38.6,21.1,30.34,WNW,302,2.0,2.0,49,0.00,,,0.00,Wunderground v.1.15,2013-03-06 18:20:00,
2013-03-06 12:30:00,39.2,22.1,30.34,ENE,59,2.0,6.0,50,0.00,,,0.00,Wunderground v.1.15,2013-03-06 18:30:00,
2013-03-06 12:39:00,39.8,21.7,30.33,NNW,330,2.0,2.0,48,0.00,,,0.00,Wunderground v.1.15,2013-03-06 18:39:00,
2013-03-06 12:45:00,40.2,22.5,30.33,NNW,327,2.0,2.0,49,0.00,,,0.00,Wunderground v.1.15,2013-03-06 18:45:00,
2013-03-06 12:54:00,40.5,22.8,30.33,SW,234,2.0,2.0,49,0.00,,,0.00,Wunderground v.1.15,2013-03-06 18:54:00,
2013-03-06 13:00:00,40.8,21.6,30.33,East,80,2.0,2.0,46,0.00,,,0.00,Wunderground v.1.15,2013-03-06 19:00:00,
2013-03-06 13:05:00,40.6,23.4,30.32,NNW,344,2.0,2.0,50,0.00,,,0.00,Wunderground v.1.15,2013-03-06 19:05:00,
2013-03-06 13:15:00,41.1,22.9,30.32,WSW,255,1.0,3.0,48,0.00,,,0.00,Wunderground v.1.15,2013-03-06 19:15:00,
2013-03-06 13:24:00,41.8,22.0,30.31,NE,49,2.0,2.0,45,0.00,,,0.00,Wunderground v.1.15,2013-03-06 19:24:00,
2013-03-06 13:30:00,41.1,21.3,30.31,NE,44,3.0,3.0,45,0.00,,,0.00,Wunderground v.1.15,2013-03-06 19:30:00,
2013-03-06 13:39:00,41.3,22.6,30.30,NE,38,2.0,2.0,47,0.00,,,0.00,Wunderground v.1.15,2013-03-06 19:39:00,
2013-03-06 13:45:00,41.6,22.8,30.30,NE,36,3.0,3.0,47,0.00,,,0.00,Wunderground v.1.15,2013-03-06 19:45:00,
2013-03-06 13:55:00,42.5,22.6,30.30,WNW,302,2.0,4.0,45,0.00,,,0.00,Wunderground v.1.15,2013-03-06 19:55:00,
2013-03-06 14:05:00,43.6,22.0,30.30,WNW,302,1.0,2.0,42,0.00,,,0.00,Wunderground v.1.15,2013-03-06 20:05:00,
2013-03-06 14:14:00,43.5,22.5,30.30,SW,232,1.0,3.0,43,0.00,,,0.00,Wunderground v.1.15,2013-03-06 20:14:00,
2013-03-06 14:20:00,43.8,22.7,30.29,NW,320,2.0,2.0,43,0.00,,,0.00,Wunderground v.1.15,2013-03-06 20:20:00,
2013-03-06 14:29:00,42.9,21.9,30.29,NNE,31,3.0,3.0,43,0.00,,,0.00,Wunderground v.1.15,2013-03-06 20:29:00,
2013-03-06 14:35:00,43.5,22.5,30.29,WNW,296,1.0,3.0,43,0.00,,,0.00,Wunderground v.1.15,2013-03-06 20:35:00,
2013-03-06 14:44:00,43.9,22.3,30.29,NW,323,2.0,2.0,42,0.00,,,0.00,Wunderground v.1.15,2013-03-06 20:44:00,
2013-03-06 14:50:00,43.9,22.3,30.28,NNE,32,2.0,2.0,42,0.00,,,0.00,Wunderground v.1.15,2013-03-06 20:50:00,
2013-03-06 14:59:00,43.2,21.6,30.28,NE,36,2.0,2.0,42,0.00,,,0.00,Wunderground v.1.15,2013-03-06 20:59:00,
2013-03-06 15:05:00,43.6,24.2,30.27,NNW,338,1.0,2.0,46,0.00,,,0.00,Wunderground v.1.15,2013-03-06 21:05:00,
2013-03-06 15:15:00,44.3,21.5,30.27,NW,323,1.0,6.0,40,0.00,,,0.00,Wunderground v.1.15,2013-03-06 21:15:00,
2013-03-06 15:25:00,43.8,22.2,30.28,North,5,3.0,3.0,42,0.00,,,0.00,Wunderground v.1.15,2013-03-06 21:25:00,
2013-03-06 15:35:00,44.2,21.4,30.27,NNW,345,1.0,5.0,40,0.00,,,0.00,Wunderground v.1.15,2013-03-06 21:35:00,
2013-03-06 15:45:00,44.3,22.6,30.27,North,9,1.0,2.0,42,0.00,,,0.00,Wunderground v.1.15,2013-03-06 21:45:00,
2013-03-06 15:54:00,44.2,22.5,30.27,NE,53,1.0,1.0,42,0.00,,,0.00,Wunderground v.1.15,2013-03-06 21:54:00,
2013-03-06 16:00:00,44.2,21.4,30.27,NW,318,1.0,3.0,40,0.00,,,0.00,Wunderground v.1.15,2013-03-06 22:00:00,
2013-03-06 16:05:00,44.2,22.0,30.27,NNW,348,1.0,3.0,41,0.00,,,0.00,Wunderground v.1.15,2013-03-06 22:05:00,
2013-03-06 16:14:00,44.5,21.6,30.27,NE,40,1.0,2.0,40,0.00,,,0.00,Wunderground v.1.15,2013-03-06 22:14:00,
2013-03-06 16:20:00,44.1,21.9,30.27,NE,37,2.0,2.0,41,0.00,,,0.00,Wunderground v.1.15,2013-03-06 22:20:00,
2013-03-06 16:29:00,44.5,21.6,30.27,NNE,15,0.0,0.0,40,0.00,,,0.00,Wunderground v.1.15,2013-03-06 22:29:00,
2013-03-06 16:34:00,44.2,21.4,30.27,WNW,283,0.0,2.0,40,0.00,,,0.00,Wunderground v.1.15,2013-03-06 22:34:00,
2013-03-06 16:45:00,43.3,21.1,30.27,NNE,26,1.0,1.0,41,0.00,,,0.00,Wunderground v.1.15,2013-03-06 22:45:00,
2013-03-06 16:55:00,42.6,21.1,30.27,NNE,26,1.0,1.0,42,0.00,,,0.00,Wunderground v.1.15,2013-03-06 22:55:00,
2013-03-06 17:05:00,42.1,21.2,30.26,NNE,25,0.0,1.0,43,0.00,,,0.00,Wunderground v.1.15,2013-03-06 23:05:00,
2013-03-06 17:10:00,41.9,21.0,30.26,NNE,25,0.0,0.0,43,0.00,,,0.00,Wunderground v.1.15,2013-03-06 23:10:00,
2013-03-06 17:20:00,41.6,21.3,30.25,NNE,25,0.0,1.0,44,0.00,,,0.00,Wunderground v.1.15,2013-03-06 23:20:00,
2013-03-06 17:25:00,41.6,21.3,30.25,NNE,24,0.0,1.0,44,0.00,,,0.00,Wunderground v.1.15,2013-03-06 23:25:00,
2013-03-06 17:34:00,41.6,21.3,30.26,NNE,23,0.0,0.0,44,0.00,,,0.00,Wunderground v.1.15,2013-03-06 23:34:00,
2013-03-06 17:40:00,41.5,21.2,30.26,NNE,23,0.0,0.0,44,0.00,,,0.00,Wunderground v.1.15,2013-03-06 23:40:00,
2013-03-06 17:50:00,41.1,21.9,30.26,NNE,23,0.0,0.0,46,0.00,,,0.00,Wunderground v.1.15,2013-03-06 23:50:00,
2013-03-06 17:59:00,40.6,21.4,30.26,NNE,23,0.0,0.0,46,0.00,,,0.00,Wunderground v.1.15,2013-03-06 23:59:00,
2013-03-06 18:05:00,40.3,22.1,30.25,NNE,23,0.0,0.0,48,0.00,,,0.00,Wunderground v.1.15,2013-03-07 00:05:00,
2013-03-06 18:15:00,39.6,22.5,30.25,NNE,23,0.0,0.0,50,0.00,,,0.00,Wunderground v.1.15,2013-03-07 00:15:00,
2013-03-06 18:20:00,39.2,22.6,30.26,NNE,23,0.0,0.0,51,0.00,,,0.00,Wunderground v.1.15,2013-03-07 00:20:00,
2013-03-06 18:29:00,38.5,22.4,30.26,NNE,23,0.0,0.0,52,0.00,,,0.00,Wunderground v.1.15,2013-03-07 00:29:00,
2013-03-06 18:35:00,38.2,22.6,30.26,NNE,23,0.0,0.0,53,0.00,,,0.00,Wunderground v.1.15,2013-03-07 00:35:00,
2013-03-06 18:45:00,37.5,22.3,30.26,NNE,23,0.0,0.0,54,0.00,,,0.00,Wunderground v.1.15,2013-03-07 00:45:00,
2013-03-06 18:54:00,36.6,22.8,30.26,NNE,23,0.0,0.0,57,0.00,,,0.00,Wunderground v.1.15,2013-03-07 00:54:00,
2013-03-06 19:00:00,36.2,22.8,30.26,NNE,23,0.0,0.0,58,0.00,,,0.00,Wunderground v.1.15,2013-03-07 01:00:00,
2013-03-06 19:05:00,35.9,23.4,30.26,NNE,23,0.0,0.0,60,0.00,,,0.00,Wunderground v.1.15,2013-03-07 01:05:00,
2013-03-06 19:15:00,35.9,23.4,30.26,NNE,23,0.0,0.0,60,0.00,,,0.00,Wunderground v.1.15,2013-03-07 01:15:00,
2013-03-06 19:20:00,35.5,23.8,30.26,NNE,23,0.0,0.0,62,0.00,,,0.00,Wunderground v.1.15,2013-03-07 01:20:00,
2013-03-06 19:30:00,34.4,23.5,30.26,NNE,23,0.0,0.0,64,0.00,,,0.00,Wunderground v.1.15,2013-03-07 01:30:00,
2013-03-06 19:39:00,33.5,23.0,30.26,NNE,23,0.0,0.0,65,0.00,,,0.00,Wunderground v.1.15,2013-03-07 01:39:00,
2013-03-06 19:44:00,33.1,23.0,30.26,NNE,23,0.0,0.0,66,0.00,,,0.00,Wunderground v.1.15,2013-03-07 01:44:00,
2013-03-06 19:55:00,32.5,22.8,30.26,NNE,23,0.0,0.0,67,0.00,,,0.00,Wunderground v.1.15,2013-03-07 01:55:00,
2013-03-06 20:05:00,32.1,23.4,30.26,NNE,23,0.0,0.0,70,0.00,,,0.00,Wunderground v.1.15,2013-03-07 02:05:00,
2013-03-06 20:15:00,31.8,23.5,30.26,NNE,23,0.0,0.0,71,0.00,,,0.00,Wunderground v.1.15,2013-03-07 02:15:00,
2013-03-06 20:25:00,31.5,23.2,30.26,NNE,23,0.0,0.0,71,0.00,,,0.00,Wunderground v.1.15,2013-03-07 02:25:00,
2013-03-06 20:35:00,31.3,23.3,30.26,NNE,23,0.0,0.0,72,0.00,,,0.00,Wunderground v.1.15,2013-03-07 02:35:00,
2013-03-06 20:45:00,31.8,23.8,30.26,NNE,23,0.0,0.0,72,0.00,,,0.00,Wunderground v.1.15,2013-03-07 02:45:00,
2013-03-06 20:50:00,31.9,23.9,30.26,NNE,23,0.0,0.0,72,0.00,,,0.00,Wunderground v.1.15,2013-03-07 02:50:00,
2013-03-06 20:55:00,31.8,23.8,30.26,NNE,23,0.0,0.0,72,0.00,,,0.00,Wunderground v.1.15,2013-03-07 02:55:00,
2013-03-06 21:05:00,31.5,23.5,30.26,NNE,23,0.0,0.0,72,0.00,,,0.00,Wunderground v.1.15,2013-03-07 03:05:00,
2013-03-06 21:15:00,31.2,23.5,30.26,NNE,23,0.0,0.0,73,0.00,,,0.00,Wunderground v.1.15,2013-03-07 03:15:00,
2013-03-06 21:20:00,31.0,23.4,30.25,NNE,23,0.0,0.0,73,0.00,,,0.00,Wunderground v.1.15,2013-03-07 03:20:00,
2013-03-06 21:30:00,30.6,23.3,30.25,NNE,23,0.0,0.0,74,0.00,,,0.00,Wunderground v.1.15,2013-03-07 03:30:00,
2013-03-06 21:40:00,30.4,23.4,30.25,NNE,23,0.0,0.0,75,0.00,,,0.00,Wunderground v.1.15,2013-03-07 03:40:00,
2013-03-06 21:45:00,30.4,23.4,30.25,NNE,23,0.0,0.0,75,0.00,,,0.00,Wunderground v.1.15,2013-03-07 03:45:00,
2013-03-06 21:55:00,30.3,23.6,30.25,NNE,23,0.0,0.0,76,0.00,,,0.00,Wunderground v.1.15,2013-03-07 03:55:00,
2013-03-06 22:00:00,30.1,23.4,30.25,NNE,23,0.0,0.0,76,0.00,,,0.00,Wunderground v.1.15,2013-03-07 04:00:00,
2013-03-06 22:05:00,30.0,23.4,30.26,NNE,23,0.0,0.0,76,0.00,,,0.00,Wunderground v.1.15,2013-03-07 04:05:00,
2013-03-06 22:15:00,29.7,23.4,30.26,NNE,23,0.0,0.0,77,0.00,,,0.00,Wunderground v.1.15,2013-03-07 04:15:00,
2013-03-06 22:20:00,30.0,23.7,30.24,NNE,23,0.0,0.0,77,0.00,,,0.00,Wunderground v.1.15,2013-03-07 04:20:00,
2013-03-06 22:30:00,30.0,23.7,30.24,NNE,23,0.0,0.0,77,0.00,,,0.00,Wunderground v.1.15,2013-03-07 04:30:00,
2013-03-06 22:35:00,29.8,23.5,30.24,NNE,23,0.0,0.0,77,0.00,,,0.00,Wunderground v.1.15,2013-03-07 04:35:00,
2013-03-06 22:40:00,29.7,23.4,30.24,NNE,23,0.0,0.0,77,0.00,,,0.00,Wunderground v.1.15,2013-03-07 04:40:00,
2013-03-06 22:50:00,29.7,23.7,30.23,NNE,23,0.0,0.0,78,0.00,,,0.00,Wunderground v.1.15,2013-03-07 04:50:00,
2013-03-06 22:55:00,29.7,23.7,30.23,NNE,23,0.0,0.0,78,0.00,,,0.00,Wunderground v.1.15,2013-03-07 04:55:00,
2013-03-06 23:00:00,29.7,23.7,30.23,NNE,23,0.0,0.0,78,0.00,,,0.00,Wunderground v.1.15,2013-03-07 05:00:00,
2013-03-06 23:05:00,30.0,23.4,30.23,NNE,23,0.0,0.0,76,0.00,,,0.00,Wunderground v.1.15,2013-03-07 05:05:00,
2013-03-06 23:15:00,30.3,23.6,30.23,NNE,23,0.0,0.0,76,0.00,,,0.00,Wunderground v.1.15,2013-03-07 05:15:00,
2013-03-06 23:20:00,30.1,23.4,30.24,NNE,23,0.0,0.0,76,0.00,,,0.00,Wunderground v.1.15,2013-03-07 05:20:00,
2013-03-06 23:35:00,30.3,23.0,30.24,NNE,23,0.0,0.0,74,0.00,,,0.00,Wunderground v.1.15,2013-03-07 05:35:00,
2013-03-06 23:45:00,30.1,23.4,30.24,NNE,23,0.0,0.0,76,0.00,,,0.00,Wunderground v.1.15,2013-03-07 05:45:00,
2013-03-06 23:55:00,29.7,23.4,30.24,NNE,23,0.0,0.0,77,0.00,,,0.00,Wunderground v.1.15,2013-03-07 05:55:00,